createdAt,value
2022-12-06T00:00:34.676Z,89.15
2022-12-06T00:03:05.349Z,89.12
2022-12-06T00:05:41.788Z,89.12
2022-12-06T00:08:13.908Z,88.99
2022-12-06T00:10:45.341Z,89.02
2022-12-06T00:13:16.051Z,88.97
2022-12-06T00:15:49.571Z,89.15
2022-12-06T00:18:20.984Z,88.95
2022-12-06T00:20:51.428Z,89.11
2022-12-06T00:23:23.534Z,89.13
2022-12-06T00:25:54.833Z,89.06
2022-12-06T00:28:26.978Z,88.24
2022-12-06T00:31:06.415Z,88.21
2022-12-06T00:33:37.975Z,88.01
2022-12-06T00:36:12.822Z,88.00
2022-12-06T00:38:45.207Z,87.82
2022-12-06T00:41:18.240Z,87.88
2022-12-06T00:43:51.766Z,88.00
2022-12-06T00:46:25.865Z,88.11
2022-12-06T00:48:59.557Z,88.07
2022-12-06T00:51:31.805Z,88.14
2022-12-06T00:54:02.884Z,88.02
2022-12-06T00:56:35.494Z,88.23
2022-12-06T00:59:08.259Z,88.49
2022-12-06T01:01:40.572Z,88.73
2022-12-06T01:04:12.712Z,88.63
2022-12-06T01:06:43.812Z,88.91
2022-12-06T01:09:14.598Z,88.92
2022-12-06T01:11:45.167Z,88.88
2022-12-06T01:14:15.663Z,88.56
2022-12-06T01:16:46.303Z,88.71
2022-12-06T01:19:17.041Z,88.80
2022-12-06T01:21:49.064Z,88.61
2022-12-06T01:24:19.591Z,88.99
2022-12-06T01:26:50.054Z,88.82
2022-12-06T01:29:23.896Z,88.88
2022-12-06T01:31:54.381Z,88.99
2022-12-06T01:34:25.307Z,88.88
2022-12-06T01:36:55.845Z,88.40
2022-12-06T01:39:26.374Z,88.10
2022-12-06T01:41:56.887Z,87.96
2022-12-06T01:44:42.882Z,87.84
2022-12-06T01:47:18.875Z,87.84
2022-12-06T01:49:52.380Z,87.89
2022-12-06T01:52:25.952Z,88.12
2022-12-06T01:54:57.276Z,88.31
2022-12-06T01:57:30.786Z,87.91
2022-12-06T02:00:02.905Z,87.59
2022-12-06T02:02:35.063Z,87.40
2022-12-06T02:05:06.234Z,87.24
2022-12-06T02:07:37.565Z,87.44
2022-12-06T02:10:09.737Z,87.29
2022-12-06T02:12:44.072Z,87.19
2022-12-06T02:15:14.854Z,87.46
2022-12-06T02:17:54.397Z,87.74
2022-12-06T02:20:28.701Z,87.30
2022-12-06T02:23:08.029Z,87.09
2022-12-06T02:25:45.778Z,87.19
2022-12-06T02:28:52.358Z,87.61
2022-12-06T02:31:42.486Z,87.59
2022-12-06T02:34:25.143Z,87.65
2022-12-06T02:37:02.172Z,87.61
2022-12-06T02:39:50.997Z,87.83
2022-12-06T02:42:31.111Z,88.00
2022-12-06T02:45:06.550Z,88.26
2022-12-06T02:47:40.429Z,88.41
2022-12-06T02:50:13.926Z,88.18
2022-12-06T02:52:47.478Z,87.82
2022-12-06T02:55:19.737Z,88.05
2022-12-06T02:57:57.497Z,88.16
2022-12-06T03:00:46.175Z,88.07
2022-12-06T03:03:43.096Z,88.19
2022-12-06T03:06:25.602Z,88.47
2022-12-06T03:09:08.360Z,88.37
2022-12-06T03:12:04.321Z,88.08
2022-12-06T03:14:40.525Z,88.03
2022-12-06T03:17:16.882Z,88.22
2022-12-06T03:19:50.446Z,87.92
2022-12-06T03:22:23.987Z,87.86
2022-12-06T03:24:57.771Z,87.67
2022-12-06T03:27:29.332Z,87.72
2022-12-06T03:30:03.949Z,87.67
2022-12-06T03:32:39.064Z,87.25
2022-12-06T03:35:14.101Z,87.54
2022-12-06T03:37:47.952Z,86.92
2022-12-06T03:40:27.441Z,87.27
2022-12-06T03:42:58.868Z,87.09
2022-12-06T03:45:39.299Z,87.11
2022-12-06T03:48:15.630Z,87.39
2022-12-06T03:50:58.357Z,87.61
2022-12-06T03:53:28.476Z,87.34
2022-12-06T03:56:00.628Z,87.50
2022-12-06T03:58:32.773Z,87.45
2022-12-06T04:01:04.879Z,87.41
2022-12-06T04:03:35.991Z,87.49
2022-12-06T04:06:08.137Z,87.63
2022-12-06T04:08:39.315Z,87.92
2022-12-06T04:11:09.752Z,87.91
2022-12-06T04:13:41.017Z,87.68
2022-12-06T04:16:29.765Z,87.69
2022-12-06T04:19:00.272Z,87.94
2022-12-06T04:21:35.375Z,88.13
2022-12-06T04:24:06.932Z,88.08
2022-12-06T04:26:37.353Z,88.12
2022-12-06T04:29:26.216Z,88.07
2022-12-06T04:32:14.731Z,88.24
2022-12-06T04:35:03.166Z,87.93
2022-12-06T04:37:51.654Z,87.83
2022-12-06T04:40:22.736Z,87.97
2022-12-06T04:43:11.468Z,88.23
2022-12-06T04:45:42.651Z,88.22
2022-12-06T04:48:14.946Z,88.32
2022-12-06T04:50:50.384Z,88.24
2022-12-06T04:53:20.817Z,88.16
2022-12-06T04:55:55.723Z,87.94
2022-12-06T04:58:26.294Z,87.38
2022-12-06T05:00:58.533Z,87.44
2022-12-06T05:03:30.639Z,87.64
2022-12-06T05:06:02.824Z,87.53
2022-12-06T05:08:33.426Z,87.41
2022-12-06T05:11:04.168Z,87.29
2022-12-06T05:13:36.705Z,87.66
2022-12-06T05:16:08.521Z,87.92
2022-12-06T05:18:40.529Z,87.68
2022-12-06T05:21:16.996Z,87.79
2022-12-06T05:23:48.253Z,88.17
2022-12-06T05:26:20.902Z,88.27
2022-12-06T05:28:52.424Z,88.07
2022-12-06T05:31:23.415Z,88.07
2022-12-06T05:34:03.637Z,87.91
2022-12-06T05:36:34.262Z,88.00
2022-12-06T05:39:04.942Z,87.41
2022-12-06T05:41:35.573Z,87.78
2022-12-06T05:44:06.373Z,87.62
2022-12-06T05:46:37.342Z,87.71
2022-12-06T05:49:07.974Z,87.77
2022-12-06T05:51:40.112Z,87.65
2022-12-06T05:54:10.604Z,87.65
2022-12-06T05:56:41.215Z,87.96
2022-12-06T05:59:12.514Z,87.82
2022-12-06T06:01:43.312Z,87.97
2022-12-06T06:04:13.743Z,88.35
2022-12-06T06:06:44.311Z,88.15
2022-12-06T06:09:15.071Z,88.35
2022-12-06T06:11:45.753Z,88.16
2022-12-06T06:14:17.538Z,88.07
2022-12-06T06:16:49.314Z,87.81
2022-12-06T06:19:21.965Z,87.87
2022-12-06T06:21:52.790Z,87.57
2022-12-06T06:24:24.364Z,87.74
2022-12-06T06:26:54.903Z,87.66
2022-12-06T06:29:25.421Z,87.60
2022-12-06T06:31:56.042Z,88.04
2022-12-06T06:34:27.465Z,87.33
2022-12-06T06:37:15.577Z,86.91
2022-12-06T06:39:45.987Z,87.02
2022-12-06T06:42:18.053Z,86.90
2022-12-06T06:44:48.596Z,87.02
2022-12-06T06:47:20.354Z,86.81
2022-12-06T06:49:51.057Z,86.54
2022-12-06T06:52:21.700Z,86.71
2022-12-06T06:54:53.109Z,86.49
2022-12-06T06:57:23.645Z,86.46
2022-12-06T06:59:54.033Z,86.29
2022-12-06T07:02:25.520Z,86.34
2022-12-06T07:04:56.127Z,86.80
2022-12-06T07:07:28.735Z,86.98
2022-12-06T07:09:59.373Z,86.64
2022-12-06T07:12:30.052Z,86.82
2022-12-06T07:15:06.432Z,86.28
2022-12-06T07:17:37.155Z,86.80
2022-12-06T07:20:08.877Z,86.74
2022-12-06T07:22:39.530Z,87.08
2022-12-06T07:25:10.998Z,87.13
2022-12-06T07:27:42.158Z,87.13
2022-12-06T07:30:17.183Z,86.77
2022-12-06T07:32:47.066Z,86.85
2022-12-06T07:35:17.757Z,86.45
2022-12-06T07:37:48.526Z,86.57
2022-12-06T07:40:30.699Z,86.34
2022-12-06T07:43:10.770Z,86.54
2022-12-06T07:45:41.476Z,86.27
2022-12-06T07:48:11.977Z,86.48
2022-12-06T07:50:42.624Z,86.16
2022-12-06T07:53:14.849Z,85.98
2022-12-06T07:55:45.377Z,86.20
2022-12-06T07:58:18.986Z,86.39
2022-12-06T08:00:50.150Z,86.34
2022-12-06T08:03:21.359Z,86.58
2022-12-06T08:05:56.758Z,86.55
2022-12-06T08:08:29.024Z,86.62
2022-12-06T08:11:04.630Z,86.98
2022-12-06T08:13:38.746Z,86.89
2022-12-06T08:16:13.725Z,86.79
2022-12-06T08:18:45.137Z,86.70
2022-12-06T08:21:16.634Z,86.99
2022-12-06T08:23:49.711Z,86.97
2022-12-06T08:26:21.916Z,86.99
2022-12-06T08:28:53.079Z,86.90
2022-12-06T08:31:25.205Z,87.69
2022-12-06T08:33:58.972Z,86.17
2022-12-06T08:36:30.117Z,85.47
2022-12-06T08:39:02.065Z,85.23
2022-12-06T08:41:50.540Z,85.62
2022-12-06T08:44:23.579Z,85.86
2022-12-06T08:46:54.523Z,86.38
2022-12-06T08:49:27.576Z,86.33
2022-12-06T08:52:00.504Z,86.64
2022-12-06T08:54:31.256Z,86.56
2022-12-06T08:57:02.799Z,86.70
2022-12-06T08:59:33.336Z,86.37
2022-12-06T09:02:05.389Z,86.25
2022-12-06T09:04:36.136Z,86.30
2022-12-06T09:07:11.458Z,86.96
2022-12-06T09:09:39.842Z,86.50
2022-12-06T09:12:10.423Z,86.59
2022-12-06T09:14:41.827Z,85.93
2022-12-06T09:17:12.850Z,85.96
2022-12-06T09:19:43.384Z,85.93
2022-12-06T09:22:16.882Z,86.07
2022-12-06T09:24:47.296Z,85.66
2022-12-06T09:27:20.839Z,85.81
2022-12-06T09:29:51.534Z,85.58
2022-12-06T09:32:23.635Z,84.97
2022-12-06T09:34:55.573Z,85.33
2022-12-06T09:37:28.694Z,84.89
2022-12-06T09:40:03.819Z,85.21
2022-12-06T09:42:49.621Z,84.66
2022-12-06T09:45:31.708Z,85.17
2022-12-06T09:48:23.445Z,85.31
2022-12-06T09:50:59.916Z,85.28
2022-12-06T09:53:40.510Z,85.16
2022-12-06T09:56:23.702Z,85.63
2022-12-06T09:59:32.460Z,85.25
2022-12-06T10:02:36.612Z,85.83
2022-12-06T10:05:50.527Z,85.77
2022-12-06T10:08:45.333Z,85.68
2022-12-06T10:11:57.889Z,85.63
2022-12-06T10:14:39.865Z,86.11
2022-12-06T10:17:40.740Z,86.28
2022-12-06T10:20:36.255Z,86.18
2022-12-06T10:23:22.493Z,86.10
2022-12-06T10:26:14.726Z,86.05
2022-12-06T10:28:55.088Z,86.41
2022-12-06T10:31:37.570Z,86.80
2022-12-06T10:34:15.668Z,86.68
2022-12-06T10:36:53.015Z,87.08
2022-12-06T10:39:26.605Z,86.78
2022-12-06T10:42:08.943Z,86.93
2022-12-06T10:44:49.948Z,86.60
2022-12-06T10:47:30.742Z,86.88
2022-12-06T10:50:09.923Z,87.35
2022-12-06T10:52:43.420Z,87.15
2022-12-06T10:55:19.978Z,86.93
2022-12-06T10:58:09.825Z,86.68
2022-12-06T11:01:01.116Z,86.82
2022-12-06T11:03:36.000Z,86.87
2022-12-06T11:06:19.374Z,86.93
2022-12-06T11:08:57.300Z,87.05
2022-12-06T11:11:37.751Z,86.94
2022-12-06T11:14:25.236Z,87.16
2022-12-06T11:17:01.530Z,87.32
2022-12-06T11:19:39.484Z,87.37
2022-12-06T11:22:37.287Z,87.27
2022-12-06T11:25:19.794Z,86.96
2022-12-06T11:28:02.374Z,86.83
2022-12-06T11:30:35.421Z,86.14
2022-12-06T11:33:07.992Z,86.20
2022-12-06T11:35:40.131Z,86.17
2022-12-06T11:38:12.423Z,85.85
2022-12-06T11:40:54.206Z,86.00
2022-12-06T11:43:26.682Z,85.89
2022-12-06T11:45:59.502Z,85.88
2022-12-06T11:48:33.610Z,85.86
2022-12-06T11:51:05.601Z,85.83
2022-12-06T11:53:43.979Z,86.33
2022-12-06T11:56:26.657Z,85.92
2022-12-06T11:59:05.694Z,85.76
2022-12-06T12:01:45.283Z,85.44
2022-12-06T12:04:38.169Z,85.17
2022-12-06T12:07:11.889Z,84.90
2022-12-06T12:10:03.711Z,84.88
2022-12-06T12:12:50.575Z,85.20
2022-12-06T12:15:24.526Z,85.47
2022-12-06T12:17:58.660Z,85.27
2022-12-06T12:20:40.857Z,85.21
2022-12-06T12:23:26.553Z,85.54
2022-12-06T12:26:05.830Z,85.59
2022-12-06T12:28:38.589Z,85.56
2022-12-06T12:31:21.423Z,85.18
2022-12-06T12:33:55.251Z,85.36
2022-12-06T12:36:30.252Z,85.36
2022-12-06T12:39:02.519Z,85.22
2022-12-06T12:41:43.245Z,85.79
2022-12-06T12:44:37.075Z,85.80
2022-12-06T12:47:05.141Z,85.13
2022-12-06T12:49:39.558Z,85.54
2022-12-06T12:52:35.340Z,85.48
2022-12-06T12:55:27.115Z,85.69
2022-12-06T12:58:02.249Z,85.30
2022-12-06T13:00:40.374Z,85.16
2022-12-06T13:03:42.802Z,85.61
2022-12-06T13:05:52.941Z,85.90
2022-12-06T13:08:27.939Z,85.91
2022-12-06T13:11:01.589Z,86.21
2022-12-06T13:13:38.057Z,86.12
2022-12-06T13:16:11.806Z,86.13
2022-12-06T13:18:54.647Z,86.32
2022-12-06T13:21:29.772Z,86.50
2022-12-06T13:24:12.345Z,86.54
2022-12-06T13:27:01.016Z,86.45
2022-12-06T13:29:43.826Z,86.40
2022-12-06T13:32:19.313Z,86.18
2022-12-06T13:34:56.148Z,86.24
2022-12-06T13:37:29.337Z,86.06
2022-12-06T13:40:05.749Z,86.12
2022-12-06T13:42:40.562Z,86.01
2022-12-06T13:45:15.622Z,85.47
2022-12-06T13:47:55.365Z,85.85
2022-12-06T13:50:30.468Z,85.97
2022-12-06T13:53:04.905Z,86.06
2022-12-06T13:55:42.255Z,86.31
2022-12-06T13:58:19.333Z,86.59
2022-12-06T14:00:51.500Z,86.85
2022-12-06T14:03:26.687Z,86.50
2022-12-06T14:06:12.020Z,86.56
2022-12-06T14:08:47.028Z,86.52
2022-12-06T14:11:21.280Z,86.97
2022-12-06T14:14:00.477Z,87.23
2022-12-06T14:16:37.854Z,87.46
2022-12-06T14:19:24.221Z,87.51
2022-12-06T14:21:58.614Z,87.60
2022-12-06T14:24:44.282Z,87.62
2022-12-06T14:27:21.550Z,87.62
2022-12-06T14:30:05.593Z,87.85
2022-12-06T14:32:42.495Z,87.81
2022-12-06T14:35:18.884Z,87.90
2022-12-06T14:38:01.925Z,88.20
2022-12-06T14:41:02.174Z,88.47
2022-12-06T14:43:37.018Z,88.63
2022-12-06T14:46:10.530Z,88.49
2022-12-06T14:49:00.005Z,88.69
2022-12-06T14:51:41.089Z,88.85
2022-12-06T14:54:43.413Z,88.86
2022-12-06T14:57:33.941Z,88.83
2022-12-06T15:00:20.914Z,88.85
2022-12-06T15:02:45.559Z,88.92
2022-12-06T15:05:37.235Z,89.32
2022-12-06T15:08:30.374Z,89.20
2022-12-06T15:11:03.791Z,89.39
2022-12-06T15:13:38.373Z,89.67
2022-12-06T15:16:11.943Z,89.78
2022-12-06T15:18:49.966Z,90.02
2022-12-06T15:21:21.046Z,90.08
2022-12-06T15:23:53.171Z,90.26
2022-12-06T15:26:25.845Z,90.47
2022-12-06T15:28:57.804Z,90.55
2022-12-06T15:31:33.082Z,90.47
2022-12-06T15:34:05.313Z,90.52
2022-12-06T15:36:37.179Z,90.54
2022-12-06T15:39:08.958Z,90.62
2022-12-06T15:41:42.278Z,90.63
2022-12-06T15:44:20.851Z,90.63
2022-12-06T15:46:52.453Z,90.71
2022-12-06T15:49:28.653Z,90.63
2022-12-06T15:52:01.551Z,90.63
2022-12-06T15:54:34.302Z,90.65
2022-12-06T15:57:04.780Z,90.75
2022-12-06T15:59:35.543Z,90.73
2022-12-06T16:02:12.499Z,90.71
2022-12-06T16:04:43.554Z,90.66
2022-12-06T16:07:16.647Z,90.77
2022-12-06T16:09:50.785Z,90.84
2022-12-06T16:12:22.847Z,90.74
2022-12-06T16:14:54.409Z,90.76
2022-12-06T16:17:28.476Z,90.81
2022-12-06T16:20:18.275Z,90.89
2022-12-06T16:23:06.497Z,90.99
2022-12-06T16:25:38.686Z,91.09
2022-12-06T16:28:11.142Z,91.12
2022-12-06T16:30:44.718Z,91.02
2022-12-06T16:33:24.586Z,91.10
2022-12-06T16:35:57.523Z,91.07
2022-12-06T16:38:30.302Z,91.11
2022-12-06T16:41:05.290Z,91.13
2022-12-06T16:43:37.905Z,91.12
2022-12-06T16:46:26.171Z,91.17
2022-12-06T16:49:29.337Z,91.22
2022-12-06T16:51:37.837Z,91.16
2022-12-06T16:54:08.713Z,91.15
2022-12-06T16:56:41.783Z,91.09
2022-12-06T16:59:19.077Z,91.09
2022-12-06T17:01:55.941Z,91.24
2022-12-06T17:04:55.055Z,91.20
2022-12-06T17:07:29.335Z,91.25
2022-12-06T17:10:00.716Z,91.20
2022-12-06T17:12:33.004Z,91.17
2022-12-06T17:15:04.653Z,91.23
2022-12-06T17:17:36.346Z,91.25
2022-12-06T17:20:09.688Z,91.22
2022-12-06T17:22:42.824Z,91.14
2022-12-06T17:25:17.270Z,91.19
2022-12-06T17:27:49.523Z,91.19
2022-12-06T17:30:21.749Z,91.21
2022-12-06T17:32:52.390Z,91.22
2022-12-06T17:35:25.712Z,91.23
2022-12-06T17:38:03.887Z,91.25
2022-12-06T17:40:34.737Z,91.29
2022-12-06T17:43:06.494Z,91.30
2022-12-06T17:45:38.094Z,91.31
2022-12-06T17:48:09.717Z,91.32
2022-12-06T17:50:42.694Z,91.36
2022-12-06T17:53:13.351Z,91.37
2022-12-06T17:55:43.802Z,91.41
2022-12-06T17:58:14.282Z,91.40
2022-12-06T18:00:46.376Z,91.39
2022-12-06T18:03:20.485Z,91.40
2022-12-06T18:05:54.872Z,91.42
2022-12-06T18:08:25.388Z,91.43
2022-12-06T18:11:03.151Z,91.41
2022-12-06T18:13:36.182Z,91.40
2022-12-06T18:16:24.936Z,91.37
2022-12-06T18:18:59.233Z,91.34
2022-12-06T18:21:39.763Z,91.28
2022-12-06T18:24:21.488Z,91.27
2022-12-06T18:26:45.980Z,91.21
2022-12-06T18:29:20.520Z,91.20
2022-12-06T18:31:51.495Z,91.11
2022-12-06T18:34:23.436Z,91.16
2022-12-06T18:36:56.807Z,91.14
2022-12-06T18:39:29.248Z,91.18
2022-12-06T18:42:02.056Z,91.15
2022-12-06T18:44:32.918Z,91.11
2022-12-06T18:47:03.945Z,91.06
2022-12-06T18:49:34.435Z,91.07
2022-12-06T18:52:06.344Z,91.06
2022-12-06T18:54:37.072Z,91.06
2022-12-06T18:57:08.236Z,91.08
2022-12-06T18:59:38.800Z,91.08
2022-12-06T19:02:11.486Z,91.12
2022-12-06T19:04:42.464Z,91.09
2022-12-06T19:07:14.545Z,90.99
2022-12-06T19:09:45.067Z,91.01
2022-12-06T19:12:16.764Z,91.00
2022-12-06T19:14:49.022Z,90.94
2022-12-06T19:17:19.587Z,90.86
2022-12-06T19:19:52.152Z,90.81
2022-12-06T19:22:22.612Z,90.88
2022-12-06T19:24:56.546Z,90.93
2022-12-06T19:27:27.090Z,90.96
2022-12-06T19:29:59.328Z,91.03
2022-12-06T19:32:29.829Z,90.92
2022-12-06T19:35:08.196Z,90.99
2022-12-06T19:37:36.968Z,90.96
2022-12-06T19:40:10.941Z,90.82
2022-12-06T19:42:59.390Z,90.80
2022-12-06T19:45:30.040Z,90.73
2022-12-06T19:48:02.081Z,90.75
2022-12-06T19:50:36.232Z,90.79
2022-12-06T19:53:06.750Z,90.80
2022-12-06T19:55:37.534Z,90.81
2022-12-06T19:58:10.964Z,90.78
2022-12-06T20:00:44.638Z,90.75
2022-12-06T20:03:16.013Z,90.81
2022-12-06T20:05:47.663Z,90.76
2022-12-06T20:08:19.472Z,90.80
2022-12-06T20:10:52.623Z,90.80
2022-12-06T20:13:26.322Z,90.80
2022-12-06T20:16:02.191Z,90.78
2022-12-06T20:18:33.367Z,90.80
2022-12-06T20:21:05.157Z,90.81
2022-12-06T20:23:35.679Z,90.85
2022-12-06T20:26:06.467Z,90.90
2022-12-06T20:28:37.044Z,90.94
2022-12-06T20:31:19.617Z,90.98
2022-12-06T20:33:50.624Z,90.97
2022-12-06T20:36:23.626Z,91.06
2022-12-06T20:38:55.239Z,91.05
2022-12-06T20:41:30.863Z,91.06
2022-12-06T20:44:03.529Z,91.11
2022-12-06T20:46:36.571Z,91.11
2022-12-06T20:49:09.617Z,91.09
2022-12-06T20:51:40.609Z,91.10
2022-12-06T20:54:12.476Z,91.11
2022-12-06T20:56:44.202Z,91.02
2022-12-06T20:59:14.837Z,91.06
2022-12-06T21:01:45.523Z,90.96
2022-12-06T21:04:18.177Z,91.02
2022-12-06T21:06:48.733Z,91.10
2022-12-06T21:09:19.741Z,91.12
2022-12-06T21:11:50.991Z,91.09
2022-12-06T21:14:22.067Z,91.09
2022-12-06T21:16:52.898Z,91.04
2022-12-06T21:19:24.936Z,91.05
2022-12-06T21:21:58.567Z,91.03
2022-12-06T21:24:30.143Z,91.02
2022-12-06T21:27:02.120Z,90.98
2022-12-06T21:29:34.905Z,90.92
2022-12-06T21:32:05.699Z,90.90
2022-12-06T21:34:44.479Z,90.86
2022-12-06T21:37:11.286Z,90.94
2022-12-06T21:39:43.441Z,90.94
2022-12-06T21:42:19.532Z,90.85
2022-12-06T21:44:51.630Z,90.75
2022-12-06T21:47:22.110Z,90.71
2022-12-06T21:49:52.557Z,90.59
2022-12-06T21:52:24.827Z,90.50
2022-12-06T21:54:57.765Z,90.53
2022-12-06T21:57:28.135Z,90.50
2022-12-06T21:59:58.724Z,90.53
2022-12-06T22:02:30.777Z,90.38
2022-12-06T22:05:03.439Z,90.34
2022-12-06T22:07:34.640Z,90.16
2022-12-06T22:10:07.609Z,90.26
2022-12-06T22:12:39.537Z,90.19
2022-12-06T22:15:12.315Z,90.10
2022-12-06T22:17:42.680Z,90.22
2022-12-06T22:20:13.269Z,90.14
2022-12-06T22:22:43.955Z,90.05
2022-12-06T22:25:19.444Z,89.95
2022-12-06T22:27:47.988Z,89.95
2022-12-06T22:30:21.271Z,89.99
2022-12-06T22:32:55.362Z,90.11
2022-12-06T22:35:26.235Z,90.23
2022-12-06T22:37:58.132Z,90.26
2022-12-06T22:40:28.701Z,90.19
2022-12-06T22:42:59.196Z,90.24
2022-12-06T22:45:29.691Z,90.42
2022-12-06T22:48:01.187Z,90.48
2022-12-06T22:50:33.248Z,90.58
2022-12-06T22:53:05.001Z,90.70
2022-12-06T22:55:35.747Z,90.83
2022-12-06T22:58:06.245Z,90.59
2022-12-06T23:00:38.730Z,90.19
2022-12-06T23:03:09.227Z,89.37
2022-12-06T23:05:39.917Z,89.04
2022-12-06T23:08:10.432Z,89.10
2022-12-06T23:10:41.869Z,89.44
2022-12-06T23:13:12.439Z,89.63
2022-12-06T23:15:43.013Z,89.65
2022-12-06T23:18:16.199Z,89.72
2022-12-06T23:20:47.056Z,89.82
2022-12-06T23:23:17.545Z,89.79
2022-12-06T23:25:48.183Z,89.78
2022-12-06T23:28:20.215Z,89.54
2022-12-06T23:30:52.296Z,89.63
2022-12-06T23:33:23.094Z,89.59
2022-12-06T23:35:57.356Z,89.70
2022-12-06T23:38:27.816Z,89.51
2022-12-06T23:41:07.143Z,89.04
2022-12-06T23:43:39.412Z,88.62
2022-12-06T23:46:13.384Z,88.55
2022-12-06T23:48:46.288Z,88.32
2022-12-06T23:51:20.214Z,88.38
2022-12-06T23:53:59.678Z,88.19
2022-12-06T23:56:33.252Z,88.44
2022-12-06T23:59:06.910Z,88.62
